sensor_id;sensor_type;location;lat;lon;timestamp;pressure;altitude;pressure_sealevel;temperature;humidity
76156;BME280;64906;51.290;7.348;2023-12-20T00:02:05;98465.69;;;19.66;41.71
76156;BME280;64906;51.290;7.348;2023-12-20T00:04:30;98467.09;;;19.63;41.68
76156;BME280;64906;51.290;7.348;2023-12-20T00:06:55;98466.00;;;19.64;41.86
76156;BME280;64906;51.290;7.348;2023-12-20T00:09:21;98463.84;;;19.61;41.74
76156;BME280;64906;51.290;7.348;2023-12-20T00:11:46;98467.16;;;19.58;41.88
76156;BME280;64906;51.290;7.348;2023-12-20T00:14:11;98495.09;;;19.60;41.54
76156;BME280;64906;51.290;7.348;2023-12-20T00:16:36;98482.78;;;19.58;41.48
76156;BME280;64906;51.290;7.348;2023-12-20T00:19:02;98491.00;;;19.58;41.79
76156;BME280;64906;51.290;7.348;2023-12-20T00:21:27;98493.97;;;19.61;41.44
76156;BME280;64906;51.290;7.348;2023-12-20T00:23:52;98484.72;;;19.57;41.79
76156;BME280;64906;51.290;7.348;2023-12-20T00:26:18;98493.22;;;19.56;41.51
76156;BME280;64906;51.290;7.348;2023-12-20T00:28:43;98489.91;;;19.59;41.49
76156;BME280;64906;51.290;7.348;2023-12-20T00:31:08;98483.06;;;19.56;41.48
76156;BME280;64906;51.290;7.348;2023-12-20T00:33:33;98489.13;;;19.53;41.52
76156;BME280;64906;51.290;7.348;2023-12-20T00:35:59;98492.13;;;19.57;41.62
76156;BME280;64906;51.290;7.348;2023-12-20T00:38:24;98487.47;;;19.57;41.63
76156;BME280;64906;51.290;7.348;2023-12-20T00:40:49;98484.25;;;19.50;41.71
76156;BME280;64906;51.290;7.348;2023-12-20T00:43:15;98494.03;;;19.56;41.52
76156;BME280;64906;51.290;7.348;2023-12-20T00:45:40;98489.44;;;19.52;41.65
76156;BME280;64906;51.290;7.348;2023-12-20T00:48:06;98494.03;;;19.56;41.63
76156;BME280;64906;51.290;7.348;2023-12-20T00:50:31;98507.78;;;19.51;41.64
76156;BME280;64906;51.290;7.348;2023-12-20T00:52:57;98510.00;;;19.49;41.67
76156;BME280;64906;51.290;7.348;2023-12-20T00:55:22;98506.69;;;19.52;41.52
76156;BME280;64906;51.290;7.348;2023-12-20T00:57:47;98514.91;;;19.52;41.45
76156;BME280;64906;51.290;7.348;2023-12-20T01:00:13;98510.81;;;19.50;41.52
76156;BME280;64906;51.290;7.348;2023-12-20T01:02:38;98510.81;;;19.50;41.71
76156;BME280;64906;51.290;7.348;2023-12-20T01:05:04;98518.50;;;19.48;41.80
76156;BME280;64906;51.290;7.348;2023-12-20T01:07:29;98524.50;;;19.50;41.93
76156;BME280;64906;51.290;7.348;2023-12-20T01:09:55;98527.53;;;19.48;41.27
76156;BME280;64906;51.290;7.348;2023-12-20T01:12:20;98527.00;;;19.46;41.50
76156;BME280;64906;51.290;7.348;2023-12-20T01:14:46;98528.72;;;19.42;41.61
76156;BME280;64906;51.290;7.348;2023-12-20T01:17:12;98533.88;;;19.44;41.67
76156;BME280;64906;51.290;7.348;2023-12-20T01:19:37;98541.28;;;19.43;41.79
76156;BME280;64906;51.290;7.348;2023-12-20T01:22:02;98538.53;;;19.43;41.69
76156;BME280;64906;51.290;7.348;2023-12-20T01:24:28;98527.13;;;19.36;41.94
76156;BME280;64906;51.290;7.348;2023-12-20T01:26:53;98525.75;;;19.39;41.32
76156;BME280;64906;51.290;7.348;2023-12-20T01:29:19;98523.88;;;19.34;41.65
76156;BME280;64906;51.290;7.348;2023-12-20T01:31:44;98517.81;;;19.37;41.68
76156;BME280;64906;51.290;7.348;2023-12-20T01:34:09;98512.09;;;19.34;41.91
76156;BME280;64906;51.290;7.348;2023-12-20T01:36:35;98531.22;;;19.39;41.67
76156;BME280;64906;51.290;7.348;2023-12-20T01:39:00;98515.66;;;19.34;41.88
76156;BME280;64906;51.290;7.348;2023-12-20T01:41:25;98520.91;;;19.31;41.58
76156;BME280;64906;51.290;7.348;2023-12-20T01:43:51;98527.41;;;19.35;41.68
76156;BME280;64906;51.290;7.348;2023-12-20T01:46:18;98522.81;;;19.30;41.59
76156;BME280;64906;51.290;7.348;2023-12-20T01:48:45;98530.44;;;19.33;41.94
76156;BME280;64906;51.290;7.348;2023-12-20T01:51:10;98545.78;;;19.34;41.59
76156;BME280;64906;51.290;7.348;2023-12-20T01:53:36;98546.88;;;19.33;41.70
76156;BME280;64906;51.290;7.348;2023-12-20T01:56:02;98532.16;;;19.29;41.79
76156;BME280;64906;51.290;7.348;2023-12-20T01:58:27;98533.75;;;19.30;41.82
76156;BME280;64906;51.290;7.348;2023-12-20T02:00:53;98538.41;;;19.30;41.77
76156;BME280;64906;51.290;7.348;2023-12-20T02:03:19;98541.16;;;19.30;41.58
76156;BME280;64906;51.290;7.348;2023-12-20T02:05:45;98543.88;;;19.30;41.60
76156;BME280;64906;51.290;7.348;2023-12-20T02:08:11;98538.97;;;19.27;41.63
76156;BME280;64906;51.290;7.348;2023-12-20T02:10:36;98543.66;;;19.26;41.88
76156;BME280;64906;51.290;7.348;2023-12-20T02:13:02;98543.66;;;19.26;41.91
76156;BME280;64906;51.290;7.348;2023-12-20T02:15:28;98543.66;;;19.26;41.55
76156;BME280;64906;51.290;7.348;2023-12-20T02:17:53;98540.81;;;19.36;41.39
76156;BME280;64906;51.290;7.348;2023-12-20T02:20:19;98539.25;;;19.30;41.73
76156;BME280;64906;51.290;7.348;2023-12-20T02:22:44;98528.28;;;19.30;41.39
76156;BME280;64906;51.290;7.348;2023-12-20T02:25:10;98534.31;;;19.27;41.47
76156;BME280;64906;51.290;7.348;2023-12-20T02:27:36;98527.03;;;19.18;41.56
76156;BME280;64906;51.290;7.348;2023-12-20T02:30:01;98540.97;;;19.21;42.02
76156;BME280;64906;51.290;7.348;2023-12-20T02:32:27;98534.66;;;19.21;41.74
76156;BME280;64906;51.290;7.348;2023-12-20T02:34:53;98549.13;;;19.26;41.41
76156;BME280;64906;51.290;7.348;2023-12-20T02:37:18;98557.84;;;19.28;41.68
76156;BME280;64906;51.290;7.348;2023-12-20T02:39:43;98540.13;;;19.21;41.54
76156;BME280;64906;51.290;7.348;2023-12-20T02:42:09;98541.75;;;19.22;42.03
76156;BME280;64906;51.290;7.348;2023-12-20T02:44:34;98550.84;;;19.17;41.77
76156;BME280;64906;51.290;7.348;2023-12-20T02:46:59;98546.19;;;19.18;41.54
76156;BME280;64906;51.290;7.348;2023-12-20T02:49:24;98541.53;;;19.18;41.94
76156;BME280;64906;51.290;7.348;2023-12-20T02:51:50;98546.44;;;19.21;41.64
76156;BME280;64906;51.290;7.348;2023-12-20T02:54:15;98551.38;;;19.19;41.81
76156;BME280;64906;51.290;7.348;2023-12-20T02:56:40;98544.84;;;19.15;41.55
76156;BME280;64906;51.290;7.348;2023-12-20T02:59:06;98551.66;;;19.18;41.76
76156;BME280;64906;51.290;7.348;2023-12-20T03:01:33;98548.41;;;19.16;41.69
76156;BME280;64906;51.290;7.348;2023-12-20T03:03:59;98545.13;;;19.14;41.57
76156;BME280;64906;51.290;7.348;2023-12-20T03:06:24;98545.91;;;19.19;41.48
76156;BME280;64906;51.290;7.348;2023-12-20T03:08:49;98539.59;;;19.19;41.48
76156;BME280;64906;51.290;7.348;2023-12-20T03:11:15;98542.59;;;19.22;41.39
76156;BME280;64906;51.290;7.348;2023-12-20T03:13:40;98540.47;;;19.14;41.62
76156;BME280;64906;51.290;7.348;2023-12-20T03:16:09;98530.06;;;19.16;41.51
76156;BME280;64906;51.290;7.348;2023-12-20T03:18:34;98536.91;;;19.14;41.79
76156;BME280;64906;51.290;7.348;2023-12-20T03:20:59;98542.19;;;19.05;42.01
76156;BME280;64906;51.290;7.348;2023-12-20T03:23:25;98542.19;;;19.05;41.62
76156;BME280;64906;51.290;7.348;2023-12-20T03:25:51;98536.13;;;19.13;41.78
76156;BME280;64906;51.290;7.348;2023-12-20T03:28:16;98535.53;;;19.16;41.31
76156;BME280;64906;51.290;7.348;2023-12-20T03:30:42;98525.13;;;19.18;41.48
76156;BME280;64906;51.290;7.348;2023-12-20T03:33:07;98537.75;;;19.14;41.48
76156;BME280;64906;51.290;7.348;2023-12-20T03:35:32;98530.59;;;19.18;41.30
76156;BME280;64906;51.290;7.348;2023-12-20T03:37:58;98544.03;;;19.15;41.63
76156;BME280;64906;51.290;7.348;2023-12-20T03:40:25;98546.78;;;19.15;41.76
76156;BME280;64906;51.290;7.348;2023-12-20T03:42:50;98547.56;;;19.15;41.58
76156;BME280;64906;51.290;7.348;2023-12-20T03:45:15;98535.31;;;19.13;42.11
76156;BME280;64906;51.290;7.348;2023-12-20T03:47:40;98537.78;;;19.09;41.79
76156;BME280;64906;51.290;7.348;2023-12-20T03:50:06;98545.06;;;18.95;41.95
76156;BME280;64906;51.290;7.348;2023-12-20T03:52:31;98543.84;;;19.06;41.51
76156;BME280;64906;51.290;7.348;2023-12-20T03:54:57;98537.31;;;19.02;41.57
76156;BME280;64906;51.290;7.348;2023-12-20T03:57:22;98537.31;;;19.02;41.44
76156;BME280;64906;51.290;7.348;2023-12-20T03:59:47;98542.19;;;19.05;41.75
76156;BME280;64906;51.290;7.348;2023-12-20T04:02:13;98539.16;;;19.12;41.29
76156;BME280;64906;51.290;7.348;2023-12-20T04:04:38;98534.53;;;19.07;41.48
76156;BME280;64906;51.290;7.348;2023-12-20T04:07:03;98553.09;;;19.10;41.58
76156;BME280;64906;51.290;7.348;2023-12-20T04:09:28;98547.28;;;19.17;41.23
76156;BME280;64906;51.290;7.348;2023-12-20T04:11:54;98542.69;;;19.12;41.32
76156;BME280;64906;51.290;7.348;2023-12-20T04:14:19;98544.09;;;19.10;41.49
76156;BME280;64906;51.290;7.348;2023-12-20T04:16:44;98539.47;;;19.05;41.57
76156;BME280;64906;51.290;7.348;2023-12-20T04:19:09;98534.00;;;19.05;41.35
76156;BME280;64906;51.290;7.348;2023-12-20T04:21:35;98536.19;;;19.08;41.54
76156;BME280;64906;51.290;7.348;2023-12-20T04:24:00;98526.13;;;18.99;41.71
76156;BME280;64906;51.290;7.348;2023-12-20T04:26:25;98533.53;;;18.98;41.75
76156;BME280;64906;51.290;7.348;2023-12-20T04:28:50;98539.59;;;18.95;41.52
76156;BME280;64906;51.290;7.348;2023-12-20T04:31:16;98538.81;;;18.90;41.71
76156;BME280;64906;51.290;7.348;2023-12-20T04:33:41;98545.09;;;18.90;41.87
76156;BME280;64906;51.290;7.348;2023-12-20T04:36:06;98541.25;;;18.91;41.65
76156;BME280;64906;51.290;7.348;2023-12-20T04:38:32;98537.41;;;18.92;41.85
76156;BME280;64906;51.290;7.348;2023-12-20T04:40:57;98543.69;;;18.93;41.65
76156;BME280;64906;51.290;7.348;2023-12-20T04:43:22;98540.38;;;18.96;41.83
76156;BME280;64906;51.290;7.348;2023-12-20T04:45:47;98542.38;;;18.90;41.79
76156;BME280;64906;51.290;7.348;2023-12-20T04:48:13;98533.06;;;18.91;41.76
76156;BME280;64906;51.290;7.348;2023-12-20T04:50:38;98538.53;;;18.91;41.66
76156;BME280;64906;51.290;7.348;2023-12-20T04:53:03;98542.63;;;18.94;41.71
76156;BME280;64906;51.290;7.348;2023-12-20T04:55:28;98542.31;;;18.95;41.95
76156;BME280;64906;51.290;7.348;2023-12-20T04:57:54;98538.22;;;18.93;41.63
76156;BME280;64906;51.290;7.348;2023-12-20T05:00:20;98540.72;;;18.89;41.87
76156;BME280;64906;51.290;7.348;2023-12-20T05:02:45;98539.69;;;18.85;41.85
76156;BME280;64906;51.290;7.348;2023-12-20T05:05:10;98540.44;;;18.91;41.55
76156;BME280;64906;51.290;7.348;2023-12-20T05:07:36;98543.22;;;18.86;41.64
76156;BME280;64906;51.290;7.348;2023-12-20T05:10:02;98539.63;;;18.90;41.81
76156;BME280;64906;51.290;7.348;2023-12-20T05:12:29;98537.69;;;18.91;41.86
76156;BME280;64906;51.290;7.348;2023-12-20T05:14:55;98540.69;;;18.94;41.83
76156;BME280;64906;51.290;7.348;2023-12-20T05:17:20;98539.63;;;18.90;41.87
76156;BME280;64906;51.290;7.348;2023-12-20T05:19:45;98544.28;;;18.90;41.91
76156;BME280;64906;51.290;7.348;2023-12-20T05:22:11;98556.06;;;18.90;41.46
76156;BME280;64906;51.290;7.348;2023-12-20T05:24:36;98560.41;;;18.91;41.63
76156;BME280;64906;51.290;7.348;2023-12-20T05:27:01;98554.06;;;18.96;41.33
76156;BME280;64906;51.290;7.348;2023-12-20T05:29:27;98552.44;;;18.95;41.55
76156;BME280;64906;51.290;7.348;2023-12-20T05:31:52;98550.00;;;18.93;41.61
76156;BME280;64906;51.290;7.348;2023-12-20T05:34:17;98561.22;;;18.92;41.78
76156;BME280;64906;51.290;7.348;2023-12-20T05:36:42;98563.44;;;18.90;41.63
76156;BME280;64906;51.290;7.348;2023-12-20T05:39:08;98563.09;;;18.96;41.91
76156;BME280;64906;51.290;7.348;2023-12-20T05:41:33;98559.53;;;18.96;41.92
76156;BME280;64906;51.290;7.348;2023-12-20T05:43:59;98564.50;;;18.94;41.98
76156;BME280;64906;51.290;7.348;2023-12-20T05:46:24;98565.59;;;18.93;42.05
76156;BME280;64906;51.290;7.348;2023-12-20T05:48:50;98559.81;;;18.94;42.16
76156;BME280;64906;51.290;7.348;2023-12-20T05:51:16;98559.88;;;18.89;42.22
76156;BME280;64906;51.290;7.348;2023-12-20T05:53:42;98545.09;;;18.90;42.06
76156;BME280;64906;51.290;7.348;2023-12-20T05:56:07;98545.09;;;18.90;42.24
76156;BME280;64906;51.290;7.348;2023-12-20T05:58:33;98539.06;;;18.93;42.08
76156;BME280;64906;51.290;7.348;2023-12-20T06:00:58;98540.72;;;18.89;42.02
76156;BME280;64906;51.290;7.348;2023-12-20T06:03:24;98539.09;;;18.88;42.20
76156;BME280;64906;51.290;7.348;2023-12-20T06:05:49;98543.16;;;18.91;42.42
76156;BME280;64906;51.290;7.348;2023-12-20T06:08:14;98549.47;;;18.91;42.21
76156;BME280;64906;51.290;7.348;2023-12-20T06:10:40;98548.63;;;18.91;42.35
76156;BME280;64906;51.290;7.348;2023-12-20T06:13:05;98547.25;;;18.93;42.22
76156;BME280;64906;51.290;7.348;2023-12-20T06:15:31;98544.53;;;18.93;42.26
76156;BME280;64906;51.290;7.348;2023-12-20T06:17:57;98548.34;;;18.92;42.49
76156;BME280;64906;51.290;7.348;2023-12-20T06:20:22;98537.41;;;18.92;42.72
76156;BME280;64906;51.290;7.348;2023-12-20T06:22:47;98542.31;;;18.95;42.50
76156;BME280;64906;51.290;7.348;2023-12-20T06:25:13;98537.06;;;18.99;42.34
76156;BME280;64906;51.290;7.348;2023-12-20T06:27:38;98540.34;;;19.01;42.15
76156;BME280;64906;51.290;7.348;2023-12-20T06:30:04;98555.13;;;19.00;42.76
76156;BME280;64906;51.290;7.348;2023-12-20T06:32:29;98552.09;;;19.01;42.73
76156;BME280;64906;51.290;7.348;2023-12-20T06:34:54;98545.81;;;19.01;42.54
76156;BME280;64906;51.290;7.348;2023-12-20T06:37:20;98542.00;;;19.02;42.76
76156;BME280;64906;51.290;7.348;2023-12-20T06:39:45;98534.56;;;19.02;42.80
76156;BME280;64906;51.290;7.348;2023-12-20T06:42:11;98541.69;;;19.03;42.46
76156;BME280;64906;51.290;7.348;2023-12-20T06:44:37;98529.63;;;19.04;42.65
76156;BME280;64906;51.290;7.348;2023-12-20T06:47:02;98533.50;;;19.03;43.03
76156;BME280;64906;51.290;7.348;2023-12-20T06:49:28;98534.53;;;19.07;42.70
76156;BME280;64906;51.290;7.348;2023-12-20T06:51:53;98540.00;;;19.07;42.83
76156;BME280;64906;51.290;7.348;2023-12-20T06:54:18;98546.81;;;19.10;42.75
76156;BME280;64906;51.290;7.348;2023-12-20T06:56:44;98544.88;;;19.10;42.73
76156;BME280;64906;51.290;7.348;2023-12-20T06:59:09;98546.53;;;19.11;42.92
76156;BME280;64906;51.290;7.348;2023-12-20T07:01:34;98533.88;;;19.15;42.68
76156;BME280;64906;51.290;7.348;2023-12-20T07:03:59;98539.06;;;19.17;42.57
76156;BME280;64906;51.290;7.348;2023-12-20T07:06:25;98542.94;;;19.16;42.73
76156;BME280;64906;51.290;7.348;2023-12-20T07:08:52;98552.75;;;19.17;43.03
76156;BME280;64906;51.290;7.348;2023-12-20T07:11:17;98541.81;;;19.17;42.82
76156;BME280;64906;51.290;7.348;2023-12-20T07:13:43;98546.19;;;19.18;42.68
76156;BME280;64906;51.290;7.348;2023-12-20T07:16:08;98549.16;;;19.21;43.08
76156;BME280;64906;51.290;7.348;2023-12-20T07:18:33;98550.25;;;19.20;42.94
76156;BME280;64906;51.290;7.348;2023-12-20T07:20:58;98548.06;;;19.22;42.71
76156;BME280;64906;51.290;7.348;2023-12-20T07:23:24;98550.22;;;19.25;42.63
76156;BME280;64906;51.290;7.348;2023-12-20T07:25:50;98539.56;;;19.24;43.15
76156;BME280;64906;51.290;7.348;2023-12-20T07:28:16;98531.34;;;19.24;43.40
76156;BME280;64906;51.290;7.348;2023-12-20T07:30:41;98542.00;;;19.25;43.02
76156;BME280;64906;51.290;7.348;2023-12-20T07:33:06;98530.25;;;19.25;43.08
76156;BME280;64906;51.290;7.348;2023-12-20T07:35:34;98537.63;;;19.29;42.92
76156;BME280;64906;51.290;7.348;2023-12-20T07:37:59;98536.50;;;19.30;42.96
76156;BME280;64906;51.290;7.348;2023-12-20T07:40:24;98546.63;;;19.30;43.21
76156;BME280;64906;51.290;7.348;2023-12-20T07:42:49;98562.78;;;19.31;43.14
76156;BME280;64906;51.290;7.348;2023-12-20T07:45:15;98552.91;;;19.30;42.96
76156;BME280;64906;51.290;7.348;2023-12-20T07:47:40;98549.91;;;19.32;43.16
76156;BME280;64906;51.290;7.348;2023-12-20T07:50:06;98551.53;;;19.33;43.35
76156;BME280;64906;51.290;7.348;2023-12-20T07:52:31;98548.81;;;19.33;42.90
76156;BME280;64906;51.290;7.348;2023-12-20T07:54:56;98552.63;;;19.32;43.14
76156;BME280;64906;51.290;7.348;2023-12-20T07:57:23;98553.69;;;19.36;43.07
76156;BME280;64906;51.290;7.348;2023-12-20T07:59:48;98552.88;;;19.35;43.37
76156;BME280;64906;51.290;7.348;2023-12-20T08:02:14;98544.38;;;19.37;43.23
76156;BME280;64906;51.290;7.348;2023-12-20T08:04:39;98548.50;;;19.34;43.37
76156;BME280;64906;51.290;7.348;2023-12-20T08:07:05;98551.75;;;19.36;43.28
76156;BME280;64906;51.290;7.348;2023-12-20T08:09:31;98552.88;;;19.35;43.08
76156;BME280;64906;51.290;7.348;2023-12-20T08:11:57;98554.22;;;19.38;43.05
76156;BME280;64906;51.290;7.348;2023-12-20T08:14:24;98550.06;;;19.40;43.12
76156;BME280;64906;51.290;7.348;2023-12-20T08:16:49;98541.34;;;19.38;42.99
76156;BME280;64906;51.290;7.348;2023-12-20T08:19:15;98545.19;;;19.37;43.21
76156;BME280;64906;51.290;7.348;2023-12-20T08:21:40;98545.19;;;19.37;42.83
76156;BME280;64906;51.290;7.348;2023-12-20T08:24:06;98548.16;;;19.41;43.19
76156;BME280;64906;51.290;7.348;2023-12-20T08:26:32;98559.41;;;19.39;42.93
76156;BME280;64906;51.290;7.348;2023-12-20T08:28:58;98554.72;;;19.40;43.16
76156;BME280;64906;51.290;7.348;2023-12-20T08:31:23;98548.66;;;19.43;42.86
76156;BME280;64906;51.290;7.348;2023-12-20T08:33:49;98552.53;;;19.42;43.03
76156;BME280;64906;51.290;7.348;2023-12-20T08:36:14;98559.13;;;19.41;43.04
76156;BME280;64906;51.290;7.348;2023-12-20T08:38:40;98542.41;;;19.42;43.03
76156;BME280;64906;51.290;7.348;2023-12-20T08:41:06;98558.81;;;19.42;42.56
76156;BME280;64906;51.290;7.348;2023-12-20T08:43:31;98554.13;;;19.43;42.82
76156;BME280;64906;51.290;7.348;2023-12-20T08:45:57;98548.66;;;19.43;42.64
76156;BME280;64906;51.290;7.348;2023-12-20T08:48:22;98543.47;;;19.41;42.78
76156;BME280;64906;51.290;7.348;2023-12-20T08:50:48;98554.44;;;19.41;43.01
76156;BME280;64906;51.290;7.348;2023-12-20T08:53:15;98555.25;;;19.42;43.02
76156;BME280;64906;51.290;7.348;2023-12-20T08:55:41;98562.34;;;19.43;42.96
76156;BME280;64906;51.290;7.348;2023-12-20T08:58:07;98570.56;;;19.43;42.79
76156;BME280;64906;51.290;7.348;2023-12-20T09:00:33;98555.78;;;19.44;42.95
76156;BME280;64906;51.290;7.348;2023-12-20T09:02:58;98551.13;;;19.44;42.93
76156;BME280;64906;51.290;7.348;2023-12-20T09:05:24;98550.84;;;19.46;42.66
76156;BME280;64906;51.290;7.348;2023-12-20T09:07:50;98555.50;;;19.45;42.57
76156;BME280;64906;51.290;7.348;2023-12-20T09:10:15;98558.75;;;19.47;42.82
76156;BME280;64906;51.290;7.348;2023-12-20T09:12:41;98556.56;;;19.49;42.57
76156;BME280;64906;51.290;7.348;2023-12-20T09:15:08;98560.38;;;19.48;42.88
76156;BME280;64906;51.290;7.348;2023-12-20T09:17:33;98546.47;;;19.45;42.86
76156;BME280;64906;51.290;7.348;2023-12-20T09:19:59;98556.03;;;19.47;42.58
76156;BME280;64906;51.290;7.348;2023-12-20T09:22:25;98566.38;;;19.50;42.96
76156;BME280;64906;51.290;7.348;2023-12-20T09:24:50;98551.09;;;19.49;42.74
76156;BME280;64906;51.290;7.348;2023-12-20T09:27:16;98546.09;;;19.51;43.07
76156;BME280;64906;51.290;7.348;2023-12-20T09:29:41;98549.97;;;19.50;42.74
76156;BME280;64906;51.290;7.348;2023-12-20T09:32:06;98546.09;;;19.51;42.89
76156;BME280;64906;51.290;7.348;2023-12-20T09:34:32;98543.66;;;19.50;42.94
76156;BME280;64906;51.290;7.348;2023-12-20T09:36:57;98535.38;;;19.55;42.63
76156;BME280;64906;51.290;7.348;2023-12-20T09:39:22;98548.78;;;19.56;42.59
76156;BME280;64906;51.290;7.348;2023-12-20T09:42:00;98546.03;;;19.56;42.95
76156;BME280;64906;51.290;7.348;2023-12-20T09:44:25;98535.63;;;19.58;43.21
76156;BME280;64906;51.290;7.348;2023-12-20T09:46:52;98531.47;;;19.61;42.96
76156;BME280;64906;51.290;7.348;2023-12-20T09:49:19;98531.66;;;19.69;43.02
76156;BME280;64906;51.290;7.348;2023-12-20T09:51:46;98539.38;;;19.86;42.71
76156;BME280;64906;51.290;7.348;2023-12-20T09:54:14;98527.91;;;20.02;42.78
76156;BME280;64906;51.290;7.348;2023-12-20T09:56:40;98525.53;;;19.96;42.59
76156;BME280;64906;51.290;7.348;2023-12-20T09:59:05;98536.03;;;19.89;42.67
76156;BME280;64906;51.290;7.348;2023-12-20T10:01:31;98532.56;;;19.83;42.85
76156;BME280;64906;51.290;7.348;2023-12-20T10:03:57;98532.63;;;19.78;43.16
76156;BME280;64906;51.290;7.348;2023-12-20T10:06:25;98532.63;;;19.78;42.78
76156;BME280;64906;51.290;7.348;2023-12-20T10:08:50;98533.72;;;19.77;43.25
76156;BME280;64906;51.290;7.348;2023-12-20T10:11:15;98540.03;;;19.78;42.97
76156;BME280;64906;51.290;7.348;2023-12-20T10:13:41;98544.19;;;19.75;43.14
76156;BME280;64906;51.290;7.348;2023-12-20T10:16:07;98536.69;;;19.81;43.06
76156;BME280;64906;51.290;7.348;2023-12-20T10:18:35;98540.25;;;19.81;42.91
76156;BME280;64906;51.290;7.348;2023-12-20T10:21:01;98527.66;;;19.80;42.91
76156;BME280;64906;51.290;7.348;2023-12-20T10:23:26;98539.38;;;19.86;42.78
76156;BME280;64906;51.290;7.348;2023-12-20T10:25:58;98527.66;;;19.80;42.95
76156;BME280;64906;51.290;7.348;2023-12-20T10:28:24;98521.91;;;19.82;43.21
76156;BME280;64906;51.290;7.348;2023-12-20T10:30:54;98517.53;;;19.81;42.76
76156;BME280;64906;51.290;7.348;2023-12-20T10:33:30;98518.66;;;19.80;42.74
76156;BME280;64906;51.290;7.348;2023-12-20T10:36:00;98516.22;;;19.78;43.16
76156;BME280;64906;51.290;7.348;2023-12-20T10:38:25;98513.47;;;19.78;42.65
76156;BME280;64906;51.290;7.348;2023-12-20T10:40:54;98515.91;;;19.80;42.91
76156;BME280;64906;51.290;7.348;2023-12-20T10:43:22;98520.56;;;19.79;43.10
76156;BME280;64906;51.290;7.348;2023-12-20T10:45:48;98515.63;;;19.81;42.57
76156;BME280;64906;51.290;7.348;2023-12-20T10:48:13;98508.78;;;19.79;42.63
76156;BME280;64906;51.290;7.348;2023-12-20T10:50:38;98510.72;;;19.78;42.89
76156;BME280;64906;51.290;7.348;2023-12-20T10:53:06;98510.19;;;19.76;42.89
76156;BME280;64906;51.290;7.348;2023-12-20T10:55:31;98508.28;;;19.77;42.92
76156;BME280;64906;51.290;7.348;2023-12-20T10:58:09;98504.13;;;19.79;42.63
76156;BME280;64906;51.290;7.348;2023-12-20T11:00:39;98499.78;;;19.78;42.78
76156;BME280;64906;51.290;7.348;2023-12-20T11:03:09;98490.72;;;19.78;43.01
76156;BME280;64906;51.290;7.348;2023-12-20T11:05:55;98504.44;;;19.78;42.78
76156;BME280;64906;51.290;7.348;2023-12-20T11:08:39;98484.13;;;19.79;42.67
76156;BME280;64906;51.290;7.348;2023-12-20T11:13:54;98504.13;;;19.79;42.88
76156;BME280;64906;51.290;7.348;2023-12-20T11:16:22;98502.50;;;19.78;42.51
76156;BME280;64906;51.290;7.348;2023-12-20T11:18:47;98504.13;;;19.79;42.50
76156;BME280;64906;51.290;7.348;2023-12-20T11:21:12;98508.47;;;19.80;42.41
76156;BME280;64906;51.290;7.348;2023-12-20T11:23:42;98509.38;;;19.76;42.75
76156;BME280;64906;51.290;7.348;2023-12-20T11:26:07;98509.44;;;19.71;42.93
76156;BME280;64906;51.290;7.348;2023-12-20T11:28:33;98514.13;;;19.70;42.62
76156;BME280;64906;51.290;7.348;2023-12-20T11:31:00;98499.00;;;19.73;42.63
76156;BME280;64906;51.290;7.348;2023-12-20T11:35:55;98489.97;;;19.72;42.40
76156;BME280;64906;51.290;7.348;2023-12-20T11:38:21;98493.00;;;19.71;42.62
76156;BME280;64906;51.290;7.348;2023-12-20T11:40:48;98481.25;;;19.70;42.48
76156;BME280;64906;51.290;7.348;2023-12-20T11:43:29;98484.50;;;19.72;42.46
76156;BME280;64906;51.290;7.348;2023-12-20T11:46:02;98482.81;;;19.76;42.58
76156;BME280;64906;51.290;7.348;2023-12-20T11:48:28;98477.69;;;19.70;42.71
76156;BME280;64906;51.290;7.348;2023-12-20T11:50:53;98488.34;;;19.71;42.28
76156;BME280;64906;51.290;7.348;2023-12-20T11:53:19;98481.56;;;19.69;42.53
76156;BME280;64906;51.290;7.348;2023-12-20T11:55:48;98487.81;;;19.69;42.72
76156;BME280;64906;51.290;7.348;2023-12-20T11:58:14;98474.13;;;19.69;42.43
76156;BME280;64906;51.290;7.348;2023-12-20T12:00:41;98471.41;;;19.69;42.78
76156;BME280;64906;51.290;7.348;2023-12-20T12:03:06;98468.34;;;19.71;42.38
76156;BME280;64906;51.290;7.348;2023-12-20T12:05:32;98461.25;;;19.70;42.48
76156;BME280;64906;51.290;7.348;2023-12-20T12:07:58;98460.66;;;19.73;42.36
76156;BME280;64906;51.290;7.348;2023-12-20T12:10:23;98467.50;;;19.75;42.50
76156;BME280;64906;51.290;7.348;2023-12-20T12:12:49;98450.31;;;19.70;42.69
76156;BME280;64906;51.290;7.348;2023-12-20T12:15:14;98456.25;;;19.77;42.60
76156;BME280;64906;51.290;7.348;2023-12-20T12:17:39;98457.34;;;19.76;42.79
76156;BME280;64906;51.290;7.348;2023-12-20T12:20:06;98451.56;;;19.77;42.49
76156;BME280;64906;51.290;7.348;2023-12-20T12:22:31;98444.16;;;19.78;42.32
76156;BME280;64906;51.290;7.348;2023-12-20T12:24:59;98455.66;;;19.80;42.58
76156;BME280;64906;51.290;7.348;2023-12-20T12:27:33;98447.72;;;19.78;42.50
76156;BME280;64906;51.290;7.348;2023-12-20T12:30:03;98450.16;;;19.80;42.32
76156;BME280;64906;51.290;7.348;2023-12-20T12:32:29;98449.34;;;19.79;42.21
76156;BME280;64906;51.290;7.348;2023-12-20T12:34:55;98438.09;;;19.81;42.15
76156;BME280;64906;51.290;7.348;2023-12-20T12:37:20;98442.25;;;19.78;42.18
76156;BME280;64906;51.290;7.348;2023-12-20T12:39:48;98427.97;;;19.81;42.37
76156;BME280;64906;51.290;7.348;2023-12-20T12:42:13;98423.06;;;19.78;42.25
76156;BME280;64906;51.290;7.348;2023-12-20T12:44:39;98439.50;;;19.78;42.53
76156;BME280;64906;51.290;7.348;2023-12-20T12:47:04;98439.00;;;19.76;41.89
76156;BME280;64906;51.290;7.348;2023-12-20T12:49:32;98434.69;;;19.70;42.19
76156;BME280;64906;51.290;7.348;2023-12-20T12:51:57;98442.41;;;19.68;42.46
76156;BME280;64906;51.290;7.348;2023-12-20T12:54:23;98436.03;;;19.73;42.35
76156;BME280;64906;51.290;7.348;2023-12-20T12:56:49;98432.16;;;19.74;41.96
76156;BME280;64906;51.290;7.348;2023-12-20T12:59:15;98430.25;;;19.74;42.13